Huvudsida
METAR-TAF:

METAR-TAF

Flygplatser :

Larnacas internationella flygplats

Larnaca, Cypern

latitud: 34-53N, longitud: 033-38E, höjd: 2 m

Aktuellt väderrapport

Denna rapport gjordes för 17 minuter sedan, klockan 08:00 UTC
Vind 16 kt från nord/nordost
Temperatur 28°C
Fuktighet 55%
Tryck 1013 hPa
Sikt 10 km eller mer
Få moln på en höjd av 2500 ft

METAR: LCLK 230800Z 03016KT 9999 FEW025 28/18 Q1013 NOSIG

Tid: 11:17 (08:17 UTC)

Väderprognos

Denna rapport gjordes för 2 timmar och 47 minuter sedan, klockan 05:30 UTC
Prognos gäller från 23 kl. 06 UTC till 24 kl. 06 UTC
Vind 8 kt från nord/nordost
Sikt 10 km eller mer
Få moln på en höjd av 2500 ft
Spridda moln på en höjd av 6000 ft
Blir
från 23 kl. 07 UTC till 23 kl. 11 UTC
Vind 18 kt från ost
Blir
från 23 kl. 16 UTC till 23 kl. 18 UTC
Vind 7 kt från nord/nordväst

TAF: LCLK 230530Z 2306/2406 02008KT 9999 FEW025 SCT060 BECMG 2307/2311 08018KT BECMG 2316/2318 33007KT

Aktuella väderrapporter och prognoser från 4000 flygplatser (METAR- och TAF-rapporter).

De tillgängliga stationerna syns som gula och röda prickar på kartan.

För musen över prickarna för att se namnen på stationerna.

Klicka sedan för att få väderrapporter och prognoser.

För att ändra kartan: Klicka på de gröna knapparna med ett svart kors på för att zooma in; den gröna knappen med ett streck på för att zooma ut; eller på de gröna pilarna för angränsande kartor.


METAR-TAF: